createdAt,value
2018-02-02T00:04:39.663Z," 4.06"
2018-02-02T00:09:38.878Z," 4.05"
2018-02-02T00:14:37.915Z," 4.02"
2018-02-02T00:19:38.760Z," 4.01"
2018-02-02T00:24:32.953Z," 3.96"
2018-02-02T00:29:33.636Z," 4.05"
2018-02-02T00:34:33.276Z," 3.83"
2018-02-02T00:39:28.643Z," 4.06"
2018-02-02T00:44:25.203Z," 3.96"
2018-02-02T00:49:24.656Z," 3.98"
2018-02-02T00:54:23.882Z," 3.87"
2018-02-02T00:59:23.753Z," 3.87"
2018-02-02T01:04:20.008Z," 4.14"
2018-02-02T01:09:20.486Z," 4.16"
2018-02-02T01:14:19.230Z," 4.16"
2018-02-02T01:19:17.849Z," 4.12"
2018-02-02T01:24:12.851Z," 4.14"
2018-02-02T01:29:08.740Z," 4.22"
2018-02-02T01:34:08.380Z," 4.19"
2018-02-02T01:39:05.466Z," 4.38"
2018-02-02T01:44:05.401Z," 4.34"
2018-02-02T01:49:01.343Z," 4.26"
2018-02-02T01:54:01.923Z," 4.12"
2018-02-02T01:59:01.828Z," 4.20"
2018-02-02T02:04:01.403Z," 4.34"
2018-02-02T02:08:56.977Z," 4.20"
2018-02-02T02:13:52.575Z," 4.28"
2018-02-02T02:18:48.510Z," 4.22"
2018-02-02T02:23:49.319Z," 4.26"
2018-02-02T02:28:48.430Z," 4.34"
2018-02-02T02:33:43.149Z," 4.22"
2018-02-02T02:38:42.718Z," 4.31"
2018-02-02T02:43:37.940Z," 4.23"
2018-02-02T02:48:37.702Z," 4.20"
2018-02-02T02:53:37.029Z," 3.87"
2018-02-02T02:58:35.407Z," 3.32"
2018-02-02T03:03:30.024Z," 3.16"
2018-02-02T03:08:29.918Z," 3.14"
2018-02-02T03:13:24.841Z," 3.19"
2018-02-02T03:18:21.573Z," 2.93"
2018-02-02T03:23:21.008Z," 3.23"
2018-02-02T03:28:20.766Z," 3.22"
2018-02-02T03:33:21.046Z," 2.98"
2018-02-02T03:38:20.631Z," 3.10"
2018-02-02T03:43:15.291Z," 3.01"
2018-02-02T03:48:16.896Z," 3.08"
2018-02-02T03:53:16.138Z," 2.98"
2018-02-02T03:58:11.854Z," 3.16"
2018-02-02T04:03:07.318Z," 3.16"
2018-02-02T04:08:07.620Z," 3.18"
2018-02-02T04:13:02.701Z," 2.98"
2018-02-02T04:17:58.180Z," 3.07"
2018-02-02T04:22:57.708Z," 3.22"
2018-02-02T04:27:54.589Z," 3.08"
2018-02-02T04:32:49.932Z," 3.26"
2018-02-02T04:37:45.666Z," 3.23"
2018-02-02T04:42:41.513Z," 3.37"
2018-02-02T04:47:37.123Z," 3.36"
2018-02-02T04:52:33.125Z," 3.45"
2018-02-02T04:57:32.897Z," 3.29"
2018-02-02T05:02:31.825Z," 3.25"
2018-02-02T05:07:30.810Z," 3.26"
2018-02-02T05:12:29.853Z," 3.07"
2018-02-02T05:17:28.454Z," 3.34"
2018-02-02T05:22:27.370Z," 3.23"
2018-02-02T05:27:26.186Z," 3.31"
2018-02-02T05:32:24.506Z," 3.36"
2018-02-02T05:37:24.354Z," 3.08"
2018-02-02T05:42:19.870Z," 3.03"
2018-02-02T05:47:19.929Z," 2.97"
2018-02-02T05:52:15.368Z," 2.87"
2018-02-02T05:57:11.708Z," 2.68"
2018-02-02T06:02:10.891Z," 2.50"
2018-02-02T06:07:06.619Z," 2.35"
2018-02-02T06:12:03.339Z," 2.14"
2018-02-02T06:16:58.916Z," 2.02"
2018-02-02T06:21:54.669Z," 1.97"
2018-02-02T06:26:55.024Z," 2.11"
2018-02-02T06:31:54.754Z," 2.11"
2018-02-02T06:36:49.392Z," 2.18"
2018-02-02T06:41:49.472Z," 2.32"
2018-02-02T06:46:44.504Z," 2.36"
2018-02-02T06:51:40.349Z," 2.39"
2018-02-02T06:56:39.877Z," 2.60"
2018-02-02T07:01:38.663Z," 2.62"
2018-02-02T07:06:33.565Z," 2.46"
2018-02-02T07:11:30.423Z," 2.62"
2018-02-02T07:16:30.291Z," 2.75"
2018-02-02T07:21:26.160Z," 2.75"
2018-02-02T07:26:26.674Z," 2.87"
2018-02-02T07:31:25.247Z," 2.93"
2018-02-02T07:36:24.136Z," 3.07"
2018-02-02T07:41:19.085Z," 3.11"
2018-02-02T07:46:15.919Z," 3.23"
2018-02-02T07:56:16.793Z," 3.50"
2018-02-02T08:01:15.404Z," 3.59"
2018-02-02T08:06:10.481Z," 3.65"
2018-02-02T08:16:16.675Z," 3.76"
2018-02-02T08:21:11.462Z," 3.81"
2018-02-02T08:26:12.270Z," 3.87"
2018-02-02T08:31:08.228Z," 3.84"
2018-02-02T08:36:03.627Z," 3.99"
2018-02-02T08:41:00.643Z," 4.02"
2018-02-02T08:46:01.042Z," 4.10"
2018-02-02T08:51:00.769Z," 4.04"
2018-02-02T08:55:56.712Z," 4.04"
2018-02-02T09:00:56.302Z," 4.08"
2018-02-02T09:05:51.466Z," 4.04"
2018-02-02T09:10:47.144Z," 4.12"
2018-02-02T09:15:47.078Z," 4.13"
2018-02-02T09:20:46.611Z," 4.30"
2018-02-02T09:25:41.956Z," 4.38"
2018-02-02T09:30:42.760Z," 4.38"
2018-02-02T09:35:42.570Z," 4.42"
2018-02-02T09:40:43.190Z," 4.40"
2018-02-02T09:45:37.983Z," 4.48"
2018-02-02T09:50:38.251Z," 4.52"
2018-02-02T09:55:37.265Z," 4.59"
2018-02-02T10:00:37.811Z," 4.52"
2018-02-02T10:05:37.791Z," 4.66"
2018-02-02T10:10:37.041Z," 4.59"
2018-02-02T10:15:41.857Z," 4.70"
2018-02-02T10:20:42.008Z," 4.80"
2018-02-02T10:25:40.682Z," 4.93"
2018-02-02T10:30:40.726Z," 4.97"
2018-02-02T10:35:40.787Z," 4.89"
2018-02-02T10:40:40.556Z," 4.92"
2018-02-02T10:45:39.371Z," 4.78"
2018-02-02T10:50:40.490Z," 4.74"
2018-02-02T10:55:41.380Z," 4.89"
2018-02-02T11:00:40.430Z," 4.96"
2018-02-02T11:05:39.396Z," 5.02"
2018-02-02T11:15:42.421Z," 5.07"
2018-02-02T11:20:37.559Z," 5.26"
2018-02-02T11:25:37.296Z," 5.21"
2018-02-02T11:30:34.446Z," 5.21"
2018-02-02T11:35:34.545Z," 5.18"
2018-02-02T11:40:37.232Z," 5.25"
2018-02-02T11:45:35.638Z," 5.26"
2018-02-02T11:50:34.608Z," 5.35"
2018-02-02T11:55:33.670Z," 5.23"
2018-02-02T12:00:36.389Z," 5.26"
2018-02-02T12:05:38.138Z," 5.20"
2018-02-02T12:15:39.125Z," 5.54"
2018-02-02T12:20:42.226Z," 5.73"
2018-02-02T12:25:39.541Z," 5.98"
2018-02-02T12:30:41.157Z," 6.12"
2018-02-02T12:35:36.946Z," 6.41"
2018-02-02T12:40:37.639Z," 6.41"
2018-02-02T12:45:36.563Z," 6.59"
2018-02-02T12:50:38.048Z," 6.69"
2018-02-02T12:55:34.775Z," 6.75"
2018-02-02T13:00:35.042Z," 6.72"
2018-02-02T13:05:30.098Z," 6.70"
2018-02-02T13:10:29.231Z," 6.63"
2018-02-02T13:15:29.716Z," 6.59"
2018-02-02T13:20:29.580Z," 6.52"
2018-02-02T13:25:24.327Z," 6.36"
2018-02-02T13:30:25.015Z," 6.56"
2018-02-02T13:35:20.559Z," 6.59"
2018-02-02T13:40:21.234Z," 6.62"
2018-02-02T13:45:17.924Z," 6.67"
2018-02-02T13:50:17.218Z," 6.64"
2018-02-02T13:55:12.146Z," 6.75"
2018-02-02T14:00:08.827Z," 6.69"
2018-02-02T14:05:08.186Z," 6.74"
2018-02-02T14:10:05.684Z," 6.63"
2018-02-02T14:15:04.481Z," 6.60"
2018-02-02T14:20:01.599Z," 6.52"
2018-02-02T14:25:00.676Z," 6.38"
2018-02-02T14:30:00.693Z," 6.38"
2018-02-02T14:34:57.986Z," 6.27"
2018-02-02T14:39:57.000Z," 6.24"
2018-02-02T14:44:55.935Z," 6.30"
2018-02-02T14:49:54.419Z," 6.24"
2018-02-02T14:54:49.662Z," 6.22"
2018-02-02T14:59:48.255Z," 6.28"
2018-02-02T15:04:43.511Z," 6.22"
2018-02-02T15:09:45.017Z," 6.26"
2018-02-02T15:14:39.416Z," 6.28"
2018-02-02T15:19:38.997Z," 6.30"
2018-02-02T15:24:38.830Z," 6.33"
2018-02-02T15:29:37.680Z," 6.26"
2018-02-02T15:34:37.462Z," 6.27"
2018-02-02T15:39:38.197Z," 6.26"
2018-02-02T15:44:34.194Z," 6.30"
2018-02-02T15:49:35.448Z," 6.30"
2018-02-02T15:54:34.458Z," 6.17"
2018-02-02T15:59:33.155Z," 6.14"
2018-02-02T16:04:30.119Z," 6.11"
2018-02-02T16:09:29.126Z," 6.12"
2018-02-02T16:14:27.870Z," 6.12"
2018-02-02T16:19:22.574Z," 6.14"
2018-02-02T16:24:23.132Z," 6.01"
2018-02-02T16:29:22.512Z," 6.04"
2018-02-02T16:34:22.792Z," 5.98"
2018-02-02T16:39:23.201Z," 5.89"
2018-02-02T16:44:22.647Z," 5.86"
2018-02-02T16:54:23.691Z," 5.86"
2018-02-02T16:59:23.372Z," 5.90"
2018-02-02T17:04:23.098Z," 5.76"
2018-02-02T17:09:22.378Z," 5.80"
2018-02-02T17:14:23.585Z," 5.69"
2018-02-02T17:19:22.769Z," 5.57"
2018-02-02T17:24:22.320Z," 5.46"
2018-02-02T17:29:21.185Z," 5.46"
2018-02-02T17:34:20.908Z," 5.41"
2018-02-02T17:39:20.011Z," 5.38"
2018-02-02T17:44:19.899Z," 5.30"
2018-02-02T17:49:18.427Z," 5.44"
2018-02-02T17:54:18.992Z," 5.51"
2018-02-02T17:59:14.678Z," 5.39"
2018-02-02T18:04:14.112Z," 5.41"
2018-02-02T18:09:13.526Z," 5.41"
2018-02-02T18:14:09.103Z," 5.32"
2018-02-02T18:19:08.677Z," 5.30"
2018-02-02T18:24:07.740Z," 5.21"
2018-02-02T18:29:07.684Z," 5.33"
2018-02-02T18:34:02.391Z," 5.23"
2018-02-02T18:38:58.109Z," 5.18"
2018-02-02T18:43:57.931Z," 5.21"
2018-02-02T18:48:53.849Z," 5.21"
2018-02-02T18:53:55.095Z," 5.08"
2018-02-02T18:58:55.489Z," 5.18"
2018-02-02T19:03:51.445Z," 5.08"
2018-02-02T19:08:48.138Z," 5.08"
2018-02-02T19:13:49.528Z," 5.10"
2018-02-02T19:18:45.509Z," 5.08"
2018-02-02T19:23:44.846Z," 5.11"
2018-02-02T19:28:40.890Z," 5.10"
2018-02-02T19:33:41.210Z," 5.08"
2018-02-02T19:38:36.920Z," 5.02"
2018-02-02T19:43:33.623Z," 4.92"
2018-02-02T19:48:33.119Z," 4.89"
2018-02-02T19:53:32.122Z," 4.87"
2018-02-02T19:58:32.100Z," 4.93"
2018-02-02T20:03:30.653Z," 4.87"
2018-02-02T20:08:25.697Z," 4.87"
2018-02-02T20:13:22.382Z," 4.82"
2018-02-02T20:18:19.186Z," 4.73"
2018-02-02T20:23:17.010Z," 4.77"
2018-02-02T20:28:12.969Z," 4.67"
2018-02-02T20:33:12.343Z," 4.66"
2018-02-02T20:38:07.187Z," 4.66"
2018-02-02T20:43:02.932Z," 4.53"
2018-02-02T20:48:02.524Z," 4.60"
2018-02-02T20:53:02.452Z," 4.52"
2018-02-02T20:58:02.160Z," 4.66"
2018-02-02T21:03:02.917Z," 4.53"
2018-02-02T21:07:59.078Z," 4.59"
2018-02-02T21:12:59.628Z," 4.48"
2018-02-02T21:17:59.319Z," 4.53"
2018-02-02T21:28:00.202Z," 4.49"
2018-02-02T21:33:00.890Z," 4.41"
2018-02-02T21:38:00.836Z," 4.52"
2018-02-02T21:43:00.380Z," 4.48"
2018-02-02T21:47:56.282Z," 4.53"
2018-02-02T21:52:56.940Z," 4.50"
2018-02-02T21:57:52.832Z," 4.38"
2018-02-02T22:02:54.423Z," 4.50"
2018-02-02T22:07:54.328Z," 4.41"
2018-02-02T22:12:53.055Z," 4.41"
2018-02-02T22:22:53.473Z," 4.37"
2018-02-02T22:27:52.377Z," 4.40"
2018-02-02T22:32:49.661Z," 4.45"
2018-02-02T22:37:45.001Z," 4.44"
2018-02-02T22:42:40.574Z," 4.52"
2018-02-02T22:47:40.372Z," 4.50"
2018-02-02T22:52:36.311Z," 4.50"
2018-02-02T22:57:31.625Z," 4.44"
2018-02-02T23:02:27.281Z," 4.34"
2018-02-02T23:07:23.553Z," 4.37"
2018-02-02T23:12:19.623Z," 4.38"
2018-02-02T23:17:16.759Z," 4.24"
2018-02-02T23:22:18.452Z," 4.23"
2018-02-02T23:27:14.251Z," 4.28"
2018-02-02T23:32:14.556Z," 4.23"
2018-02-02T23:37:10.451Z," 4.31"
2018-02-02T23:42:07.050Z," 4.26"
2018-02-02T23:47:06.555Z," 4.30"
2018-02-02T23:52:06.453Z," 4.22"
2018-02-02T23:57:03.316Z," 4.17"
